sensor_id;sensor_type;location;lat;lon;timestamp;P1;durP1;ratioP1;P2;durP2;ratioP2
76795;SDS011;65745;50.278;18.192;2023-08-08T00:02:15;4.00;;;1.70;;
76795;SDS011;65745;50.278;18.192;2023-08-08T00:04:48;2.30;;;1.50;;
76795;SDS011;65745;50.278;18.192;2023-08-08T00:07:21;2.70;;;1.60;;
76795;SDS011;65745;50.278;18.192;2023-08-08T00:09:53;4.00;;;1.80;;
76795;SDS011;65745;50.278;18.192;2023-08-08T00:12:25;7.40;;;1.80;;
76795;SDS011;65745;50.278;18.192;2023-08-08T00:14:58;5.00;;;2.00;;
76795;SDS011;65745;50.278;18.192;2023-08-08T00:17:30;3.20;;;1.70;;
76795;SDS011;65745;50.278;18.192;2023-08-08T00:20:03;3.30;;;1.90;;
76795;SDS011;65745;50.278;18.192;2023-08-08T00:22:37;2.60;;;1.60;;
76795;SDS011;65745;50.278;18.192;2023-08-08T00:25:09;3.00;;;2.10;;
76795;SDS011;65745;50.278;18.192;2023-08-08T00:27:42;2.30;;;1.50;;
76795;SDS011;65745;50.278;18.192;2023-08-08T00:30:14;3.20;;;2.20;;
76795;SDS011;65745;50.278;18.192;2023-08-08T00:32:47;3.50;;;2.10;;
76795;SDS011;65745;50.278;18.192;2023-08-08T00:35:20;3.80;;;1.90;;
76795;SDS011;65745;50.278;18.192;2023-08-08T00:37:53;2.60;;;1.90;;
76795;SDS011;65745;50.278;18.192;2023-08-08T00:40:25;4.50;;;2.20;;
76795;SDS011;65745;50.278;18.192;2023-08-08T00:42:58;3.50;;;1.90;;
76795;SDS011;65745;50.278;18.192;2023-08-08T00:45:32;3.90;;;1.80;;
76795;SDS011;65745;50.278;18.192;2023-08-08T00:48:05;4.00;;;1.70;;
76795;SDS011;65745;50.278;18.192;2023-08-08T00:50:41;2.70;;;1.40;;
76795;SDS011;65745;50.278;18.192;2023-08-08T00:53:14;6.00;;;2.10;;
76795;SDS011;65745;50.278;18.192;2023-08-08T00:55:47;4.00;;;1.70;;
76795;SDS011;65745;50.278;18.192;2023-08-08T00:58:22;3.40;;;1.80;;
76795;SDS011;65745;50.278;18.192;2023-08-08T01:00:55;3.10;;;1.70;;
76795;SDS011;65745;50.278;18.192;2023-08-08T01:03:29;3.20;;;1.60;;
76795;SDS011;65745;50.278;18.192;2023-08-08T01:06:03;4.10;;;2.00;;
76795;SDS011;65745;50.278;18.192;2023-08-08T01:08:45;2.70;;;1.70;;
76795;SDS011;65745;50.278;18.192;2023-08-08T01:11:24;3.50;;;1.80;;
76795;SDS011;65745;50.278;18.192;2023-08-08T01:16:32;4.30;;;2.20;;
76795;SDS011;65745;50.278;18.192;2023-08-08T01:19:04;2.50;;;1.80;;
76795;SDS011;65745;50.278;18.192;2023-08-08T01:21:42;4.60;;;2.20;;
76795;SDS011;65745;50.278;18.192;2023-08-08T01:24:17;3.80;;;1.70;;
76795;SDS011;65745;50.278;18.192;2023-08-08T01:26:51;2.50;;;1.70;;
76795;SDS011;65745;50.278;18.192;2023-08-08T01:29:23;4.60;;;1.80;;
76795;SDS011;65745;50.278;18.192;2023-08-08T01:31:56;6.50;;;2.00;;
76795;SDS011;65745;50.278;18.192;2023-08-08T01:34:29;2.20;;;1.60;;
76795;SDS011;65745;50.278;18.192;2023-08-08T01:37:02;2.70;;;1.90;;
76795;SDS011;65745;50.278;18.192;2023-08-08T01:39:39;4.30;;;1.60;;
76795;SDS011;65745;50.278;18.192;2023-08-08T01:42:14;3.80;;;2.00;;
76795;SDS011;65745;50.278;18.192;2023-08-08T01:44:48;3.40;;;1.90;;
76795;SDS011;65745;50.278;18.192;2023-08-08T01:47:22;5.00;;;1.80;;
76795;SDS011;65745;50.278;18.192;2023-08-08T01:49:55;6.80;;;2.00;;
76795;SDS011;65745;50.278;18.192;2023-08-08T01:52:27;5.50;;;2.30;;
76795;SDS011;65745;50.278;18.192;2023-08-08T01:55:00;3.50;;;1.70;;
76795;SDS011;65745;50.278;18.192;2023-08-08T01:57:33;5.80;;;2.20;;
76795;SDS011;65745;50.278;18.192;2023-08-08T02:00:07;3.30;;;1.50;;
76795;SDS011;65745;50.278;18.192;2023-08-08T02:02:44;2.20;;;1.60;;
76795;SDS011;65745;50.278;18.192;2023-08-08T02:05:17;2.30;;;1.70;;
76795;SDS011;65745;50.278;18.192;2023-08-08T02:07:50;5.10;;;2.00;;
76795;SDS011;65745;50.278;18.192;2023-08-08T02:10:22;2.60;;;1.50;;
76795;SDS011;65745;50.278;18.192;2023-08-08T02:12:54;2.80;;;2.10;;
76795;SDS011;65745;50.278;18.192;2023-08-08T02:15:27;2.70;;;1.80;;
76795;SDS011;65745;50.278;18.192;2023-08-08T02:18:00;4.90;;;2.00;;
76795;SDS011;65745;50.278;18.192;2023-08-08T02:20:33;2.50;;;1.70;;
76795;SDS011;65745;50.278;18.192;2023-08-08T02:23:06;2.70;;;1.70;;
76795;SDS011;65745;50.278;18.192;2023-08-08T02:25:39;2.60;;;1.50;;
76795;SDS011;65745;50.278;18.192;2023-08-08T02:28:11;3.80;;;1.80;;
76795;SDS011;65745;50.278;18.192;2023-08-08T02:30:44;3.70;;;1.90;;
76795;SDS011;65745;50.278;18.192;2023-08-08T02:33:17;2.90;;;1.70;;
76795;SDS011;65745;50.278;18.192;2023-08-08T02:35:49;3.70;;;1.50;;
76795;SDS011;65745;50.278;18.192;2023-08-08T02:38:21;2.40;;;1.80;;
76795;SDS011;65745;50.278;18.192;2023-08-08T02:40:54;4.50;;;1.80;;
76795;SDS011;65745;50.278;18.192;2023-08-08T02:43:26;2.70;;;1.90;;
76795;SDS011;65745;50.278;18.192;2023-08-08T02:45:59;3.50;;;1.80;;
76795;SDS011;65745;50.278;18.192;2023-08-08T02:48:31;3.10;;;1.90;;
76795;SDS011;65745;50.278;18.192;2023-08-08T02:51:04;2.50;;;2.00;;
76795;SDS011;65745;50.278;18.192;2023-08-08T02:53:36;3.30;;;1.90;;
76795;SDS011;65745;50.278;18.192;2023-08-08T02:56:09;3.60;;;2.10;;
76795;SDS011;65745;50.278;18.192;2023-08-08T02:58:42;3.60;;;1.80;;
76795;SDS011;65745;50.278;18.192;2023-08-08T03:01:14;4.70;;;2.50;;
76795;SDS011;65745;50.278;18.192;2023-08-08T03:03:48;6.70;;;2.00;;
76795;SDS011;65745;50.278;18.192;2023-08-08T03:06:22;4.30;;;2.30;;
76795;SDS011;65745;50.278;18.192;2023-08-08T03:08:56;3.60;;;2.20;;
76795;SDS011;65745;50.278;18.192;2023-08-08T03:11:29;4.80;;;2.40;;
76795;SDS011;65745;50.278;18.192;2023-08-08T03:14:01;4.00;;;2.60;;
76795;SDS011;65745;50.278;18.192;2023-08-08T03:16:34;3.60;;;2.40;;
76795;SDS011;65745;50.278;18.192;2023-08-08T03:19:07;4.40;;;2.60;;
76795;SDS011;65745;50.278;18.192;2023-08-08T03:21:39;2.80;;;2.00;;
76795;SDS011;65745;50.278;18.192;2023-08-08T03:24:12;4.40;;;2.90;;
76795;SDS011;65745;50.278;18.192;2023-08-08T03:26:45;3.90;;;3.00;;
76795;SDS011;65745;50.278;18.192;2023-08-08T03:29:17;5.10;;;3.60;;
76795;SDS011;65745;50.278;18.192;2023-08-08T03:31:50;2.80;;;2.60;;
76795;SDS011;65745;50.278;18.192;2023-08-08T03:34:23;4.20;;;3.00;;
76795;SDS011;65745;50.278;18.192;2023-08-08T03:36:55;5.00;;;2.40;;
76795;SDS011;65745;50.278;18.192;2023-08-08T03:39:28;3.70;;;2.40;;
76795;SDS011;65745;50.278;18.192;2023-08-08T03:42:01;3.70;;;2.60;;
76795;SDS011;65745;50.278;18.192;2023-08-08T03:44:34;4.00;;;2.90;;
76795;SDS011;65745;50.278;18.192;2023-08-08T03:47:06;5.10;;;2.60;;
76795;SDS011;65745;50.278;18.192;2023-08-08T03:49:47;6.00;;;2.80;;
76795;SDS011;65745;50.278;18.192;2023-08-08T03:52:20;5.10;;;3.30;;
76795;SDS011;65745;50.278;18.192;2023-08-08T03:54:52;4.20;;;2.30;;
76795;SDS011;65745;50.278;18.192;2023-08-08T03:57:25;3.80;;;2.60;;
76795;SDS011;65745;50.278;18.192;2023-08-08T03:59:58;3.80;;;2.90;;
76795;SDS011;65745;50.278;18.192;2023-08-08T04:02:41;4.30;;;3.00;;
76795;SDS011;65745;50.278;18.192;2023-08-08T04:05:13;5.40;;;2.70;;
76795;SDS011;65745;50.278;18.192;2023-08-08T04:07:46;3.20;;;2.70;;
76795;SDS011;65745;50.278;18.192;2023-08-08T04:10:19;3.70;;;2.40;;
76795;SDS011;65745;50.278;18.192;2023-08-08T04:12:51;3.60;;;2.60;;
76795;SDS011;65745;50.278;18.192;2023-08-08T04:15:24;4.90;;;2.80;;
76795;SDS011;65745;50.278;18.192;2023-08-08T04:17:56;3.90;;;2.60;;
76795;SDS011;65745;50.278;18.192;2023-08-08T04:20:28;6.20;;;2.70;;
76795;SDS011;65745;50.278;18.192;2023-08-08T04:23:01;3.20;;;2.60;;
76795;SDS011;65745;50.278;18.192;2023-08-08T04:25:33;4.20;;;2.60;;
76795;SDS011;65745;50.278;18.192;2023-08-08T04:28:06;4.50;;;2.60;;
76795;SDS011;65745;50.278;18.192;2023-08-08T04:30:38;3.90;;;2.60;;
76795;SDS011;65745;50.278;18.192;2023-08-08T04:33:10;3.30;;;2.80;;
76795;SDS011;65745;50.278;18.192;2023-08-08T04:35:43;4.80;;;2.90;;
76795;SDS011;65745;50.278;18.192;2023-08-08T04:38:17;2.90;;;2.30;;
76795;SDS011;65745;50.278;18.192;2023-08-08T04:40:50;4.10;;;3.50;;
76795;SDS011;65745;50.278;18.192;2023-08-08T04:43:22;4.60;;;3.70;;
76795;SDS011;65745;50.278;18.192;2023-08-08T04:45:54;6.10;;;3.70;;
76795;SDS011;65745;50.278;18.192;2023-08-08T04:48:27;7.10;;;4.00;;
76795;SDS011;65745;50.278;18.192;2023-08-08T04:50:59;4.90;;;3.50;;
76795;SDS011;65745;50.278;18.192;2023-08-08T04:53:32;6.50;;;4.10;;
76795;SDS011;65745;50.278;18.192;2023-08-08T04:56:04;4.30;;;2.90;;
76795;SDS011;65745;50.278;18.192;2023-08-08T04:58:37;5.50;;;3.30;;
76795;SDS011;65745;50.278;18.192;2023-08-08T05:01:09;5.60;;;3.00;;
76795;SDS011;65745;50.278;18.192;2023-08-08T05:03:44;4.90;;;2.80;;
76795;SDS011;65745;50.278;18.192;2023-08-08T05:06:16;6.10;;;3.30;;
76795;SDS011;65745;50.278;18.192;2023-08-08T05:08:51;3.40;;;2.60;;
76795;SDS011;65745;50.278;18.192;2023-08-08T05:11:25;4.80;;;2.70;;
76795;SDS011;65745;50.278;18.192;2023-08-08T05:13:58;4.00;;;2.80;;
76795;SDS011;65745;50.278;18.192;2023-08-08T05:16:30;3.50;;;2.50;;
76795;SDS011;65745;50.278;18.192;2023-08-08T05:19:03;5.80;;;2.80;;
76795;SDS011;65745;50.278;18.192;2023-08-08T05:21:35;4.00;;;2.80;;
76795;SDS011;65745;50.278;18.192;2023-08-08T05:24:07;5.40;;;2.90;;
76795;SDS011;65745;50.278;18.192;2023-08-08T05:26:40;5.30;;;3.20;;
76795;SDS011;65745;50.278;18.192;2023-08-08T05:29:12;4.40;;;2.90;;
76795;SDS011;65745;50.278;18.192;2023-08-08T05:31:45;3.40;;;2.90;;
76795;SDS011;65745;50.278;18.192;2023-08-08T05:34:18;6.90;;;2.80;;
76795;SDS011;65745;50.278;18.192;2023-08-08T05:36:50;4.70;;;2.70;;
76795;SDS011;65745;50.278;18.192;2023-08-08T05:39:43;2.50;;;2.00;;
76795;SDS011;65745;50.278;18.192;2023-08-08T05:42:15;4.00;;;2.40;;
76795;SDS011;65745;50.278;18.192;2023-08-08T05:44:48;4.00;;;2.20;;
76795;SDS011;65745;50.278;18.192;2023-08-08T05:47:20;3.30;;;2.60;;
76795;SDS011;65745;50.278;18.192;2023-08-08T05:49:53;5.00;;;2.70;;
76795;SDS011;65745;50.278;18.192;2023-08-08T05:52:26;5.90;;;2.40;;
76795;SDS011;65745;50.278;18.192;2023-08-08T05:54:59;3.20;;;2.30;;
76795;SDS011;65745;50.278;18.192;2023-08-08T05:57:32;3.80;;;2.40;;
76795;SDS011;65745;50.278;18.192;2023-08-08T06:00:05;3.10;;;2.20;;
76795;SDS011;65745;50.278;18.192;2023-08-08T06:02:44;4.10;;;2.50;;
76795;SDS011;65745;50.278;18.192;2023-08-08T06:05:17;3.60;;;2.20;;
76795;SDS011;65745;50.278;18.192;2023-08-08T06:07:52;4.20;;;2.40;;
76795;SDS011;65745;50.278;18.192;2023-08-08T06:10:25;3.90;;;2.20;;
76795;SDS011;65745;50.278;18.192;2023-08-08T06:12:58;3.20;;;2.00;;
76795;SDS011;65745;50.278;18.192;2023-08-08T06:15:30;3.00;;;2.60;;
76795;SDS011;65745;50.278;18.192;2023-08-08T06:18:02;4.40;;;2.50;;
76795;SDS011;65745;50.278;18.192;2023-08-08T06:20:35;5.70;;;3.40;;
76795;SDS011;65745;50.278;18.192;2023-08-08T06:23:08;2.90;;;2.60;;
76795;SDS011;65745;50.278;18.192;2023-08-08T06:25:40;5.30;;;2.30;;
76795;SDS011;65745;50.278;18.192;2023-08-08T06:28:13;4.40;;;2.80;;
76795;SDS011;65745;50.278;18.192;2023-08-08T06:30:45;5.10;;;2.40;;
76795;SDS011;65745;50.278;18.192;2023-08-08T06:33:18;3.20;;;2.30;;
76795;SDS011;65745;50.278;18.192;2023-08-08T06:35:50;3.80;;;2.70;;
76795;SDS011;65745;50.278;18.192;2023-08-08T06:38:22;6.10;;;2.30;;
76795;SDS011;65745;50.278;18.192;2023-08-08T06:40:55;2.80;;;2.00;;
76795;SDS011;65745;50.278;18.192;2023-08-08T06:43:27;2.80;;;2.00;;
76795;SDS011;65745;50.278;18.192;2023-08-08T06:46:00;3.50;;;2.20;;
76795;SDS011;65745;50.278;18.192;2023-08-08T06:48:32;5.20;;;2.00;;
76795;SDS011;65745;50.278;18.192;2023-08-08T06:51:05;3.20;;;2.30;;
76795;SDS011;65745;50.278;18.192;2023-08-08T06:53:37;2.80;;;1.80;;
76795;SDS011;65745;50.278;18.192;2023-08-08T06:56:10;4.10;;;1.80;;
76795;SDS011;65745;50.278;18.192;2023-08-08T06:58:42;3.30;;;2.20;;
76795;SDS011;65745;50.278;18.192;2023-08-08T07:01:14;4.20;;;1.90;;
76795;SDS011;65745;50.278;18.192;2023-08-08T07:03:47;3.20;;;1.90;;
76795;SDS011;65745;50.278;18.192;2023-08-08T07:06:20;2.40;;;1.90;;
76795;SDS011;65745;50.278;18.192;2023-08-08T07:08:52;2.20;;;1.80;;
76795;SDS011;65745;50.278;18.192;2023-08-08T07:11:24;2.50;;;1.80;;
76795;SDS011;65745;50.278;18.192;2023-08-08T07:13:57;2.70;;;1.70;;
76795;SDS011;65745;50.278;18.192;2023-08-08T07:16:30;4.10;;;1.90;;
76795;SDS011;65745;50.278;18.192;2023-08-08T07:19:02;3.60;;;2.00;;
76795;SDS011;65745;50.278;18.192;2023-08-08T07:21:35;3.70;;;2.40;;
76795;SDS011;65745;50.278;18.192;2023-08-08T07:24:08;3.30;;;1.90;;
76795;SDS011;65745;50.278;18.192;2023-08-08T07:26:41;3.30;;;2.20;;
76795;SDS011;65745;50.278;18.192;2023-08-08T07:29:14;2.70;;;1.90;;
76795;SDS011;65745;50.278;18.192;2023-08-08T07:31:46;2.70;;;2.20;;
76795;SDS011;65745;50.278;18.192;2023-08-08T07:34:19;3.80;;;1.80;;
76795;SDS011;65745;50.278;18.192;2023-08-08T07:36:52;3.20;;;2.00;;
76795;SDS011;65745;50.278;18.192;2023-08-08T07:39:25;6.20;;;2.10;;
76795;SDS011;65745;50.278;18.192;2023-08-08T07:41:58;3.90;;;2.40;;
76795;SDS011;65745;50.278;18.192;2023-08-08T07:44:30;2.60;;;1.70;;
76795;SDS011;65745;50.278;18.192;2023-08-08T07:47:04;2.80;;;1.80;;
76795;SDS011;65745;50.278;18.192;2023-08-08T07:49:39;3.50;;;1.90;;
76795;SDS011;65745;50.278;18.192;2023-08-08T07:52:11;4.80;;;2.30;;
76795;SDS011;65745;50.278;18.192;2023-08-08T07:54:44;3.10;;;1.90;;
76795;SDS011;65745;50.278;18.192;2023-08-08T07:57:16;3.70;;;2.10;;
76795;SDS011;65745;50.278;18.192;2023-08-08T07:59:49;4.10;;;2.10;;
76795;SDS011;65745;50.278;18.192;2023-08-08T08:02:21;3.70;;;2.30;;
76795;SDS011;65745;50.278;18.192;2023-08-08T08:04:54;3.50;;;2.00;;
76795;SDS011;65745;50.278;18.192;2023-08-08T08:07:26;3.60;;;1.90;;
76795;SDS011;65745;50.278;18.192;2023-08-08T08:09:59;2.30;;;1.80;;
76795;SDS011;65745;50.278;18.192;2023-08-08T08:12:32;4.10;;;2.80;;
76795;SDS011;65745;50.278;18.192;2023-08-08T08:15:06;4.00;;;2.20;;
76795;SDS011;65745;50.278;18.192;2023-08-08T08:17:39;3.00;;;1.80;;
76795;SDS011;65745;50.278;18.192;2023-08-08T08:20:12;3.20;;;1.80;;
76795;SDS011;65745;50.278;18.192;2023-08-08T08:22:44;3.10;;;1.80;;
76795;SDS011;65745;50.278;18.192;2023-08-08T08:25:17;3.10;;;1.90;;
76795;SDS011;65745;50.278;18.192;2023-08-08T08:27:50;3.60;;;2.00;;
76795;SDS011;65745;50.278;18.192;2023-08-08T08:30:23;3.40;;;2.20;;
76795;SDS011;65745;50.278;18.192;2023-08-08T08:32:56;4.40;;;2.10;;
76795;SDS011;65745;50.278;18.192;2023-08-08T08:35:28;3.70;;;2.00;;
76795;SDS011;65745;50.278;18.192;2023-08-08T08:38:02;4.10;;;1.80;;
76795;SDS011;65745;50.278;18.192;2023-08-08T08:40:36;2.90;;;1.90;;
76795;SDS011;65745;50.278;18.192;2023-08-08T08:43:10;4.00;;;1.90;;
76795;SDS011;65745;50.278;18.192;2023-08-08T08:45:45;4.40;;;2.10;;
76795;SDS011;65745;50.278;18.192;2023-08-08T08:48:22;3.90;;;2.10;;
76795;SDS011;65745;50.278;18.192;2023-08-08T08:50:54;4.20;;;1.80;;
76795;SDS011;65745;50.278;18.192;2023-08-08T08:53:28;3.00;;;1.90;;
76795;SDS011;65745;50.278;18.192;2023-08-08T08:56:01;3.10;;;2.10;;
76795;SDS011;65745;50.278;18.192;2023-08-08T08:58:34;4.00;;;2.30;;
76795;SDS011;65745;50.278;18.192;2023-08-08T09:01:07;2.40;;;1.70;;
76795;SDS011;65745;50.278;18.192;2023-08-08T09:03:40;3.10;;;1.90;;
76795;SDS011;65745;50.278;18.192;2023-08-08T09:06:15;3.00;;;2.10;;
76795;SDS011;65745;50.278;18.192;2023-08-08T09:08:50;2.30;;;1.80;;
76795;SDS011;65745;50.278;18.192;2023-08-08T09:11:35;3.70;;;2.20;;
76795;SDS011;65745;50.278;18.192;2023-08-08T09:14:16;3.20;;;1.70;;
76795;SDS011;65745;50.278;18.192;2023-08-08T09:19:21;2.30;;;1.90;;
76795;SDS011;65745;50.278;18.192;2023-08-08T09:21:54;4.00;;;1.80;;
76795;SDS011;65745;50.278;18.192;2023-08-08T09:24:27;3.00;;;2.60;;
76795;SDS011;65745;50.278;18.192;2023-08-08T09:26:59;3.10;;;1.70;;
76795;SDS011;65745;50.278;18.192;2023-08-08T09:29:32;4.20;;;2.00;;
76795;SDS011;65745;50.278;18.192;2023-08-08T09:32:05;4.30;;;1.70;;
76795;SDS011;65745;50.278;18.192;2023-08-08T09:34:40;2.80;;;1.70;;
76795;SDS011;65745;50.278;18.192;2023-08-08T09:37:13;2.60;;;1.90;;
76795;SDS011;65745;50.278;18.192;2023-08-08T09:39:46;3.60;;;2.00;;
76795;SDS011;65745;50.278;18.192;2023-08-08T09:42:27;2.20;;;1.70;;
76795;SDS011;65745;50.278;18.192;2023-08-08T09:44:59;2.80;;;1.50;;
76795;SDS011;65745;50.278;18.192;2023-08-08T09:47:32;1.90;;;1.40;;
76795;SDS011;65745;50.278;18.192;2023-08-08T09:50:07;2.10;;;1.70;;
76795;SDS011;65745;50.278;18.192;2023-08-08T09:52:40;2.30;;;1.30;;
76795;SDS011;65745;50.278;18.192;2023-08-08T09:55:13;2.50;;;1.80;;
76795;SDS011;65745;50.278;18.192;2023-08-08T09:57:46;2.60;;;2.00;;
76795;SDS011;65745;50.278;18.192;2023-08-08T10:00:20;2.90;;;1.60;;
76795;SDS011;65745;50.278;18.192;2023-08-08T10:02:54;2.00;;;1.70;;
76795;SDS011;65745;50.278;18.192;2023-08-08T10:05:30;2.20;;;1.50;;
76795;SDS011;65745;50.278;18.192;2023-08-08T10:08:03;3.00;;;1.70;;
76795;SDS011;65745;50.278;18.192;2023-08-08T10:10:36;2.90;;;1.70;;
76795;SDS011;65745;50.278;18.192;2023-08-08T10:15:49;2.60;;;1.60;;
76795;SDS011;65745;50.278;18.192;2023-08-08T10:18:23;4.20;;;1.90;;
76795;SDS011;65745;50.278;18.192;2023-08-08T10:20:57;2.70;;;1.60;;
76795;SDS011;65745;50.278;18.192;2023-08-08T10:23:36;2.60;;;1.70;;
76795;SDS011;65745;50.278;18.192;2023-08-08T10:26:18;2.10;;;1.50;;
76795;SDS011;65745;50.278;18.192;2023-08-08T10:28:56;2.40;;;1.90;;
76795;SDS011;65745;50.278;18.192;2023-08-08T10:31:34;3.60;;;2.00;;
76795;SDS011;65745;50.278;18.192;2023-08-08T10:34:07;4.40;;;1.70;;
76795;SDS011;65745;50.278;18.192;2023-08-08T10:36:49;2.40;;;1.90;;
76795;SDS011;65745;50.278;18.192;2023-08-08T10:39:24;3.00;;;1.70;;
76795;SDS011;65745;50.278;18.192;2023-08-08T10:41:59;2.50;;;1.70;;
76795;SDS011;65745;50.278;18.192;2023-08-08T10:44:40;3.50;;;1.70;;
76795;SDS011;65745;50.278;18.192;2023-08-08T10:47:12;4.20;;;1.70;;
76795;SDS011;65745;50.278;18.192;2023-08-08T10:49:45;3.10;;;1.90;;
76795;SDS011;65745;50.278;18.192;2023-08-08T10:52:29;2.20;;;1.30;;
76795;SDS011;65745;50.278;18.192;2023-08-08T10:55:05;3.10;;;1.90;;
76795;SDS011;65745;50.278;18.192;2023-08-08T10:57:54;2.70;;;1.70;;
76795;SDS011;65745;50.278;18.192;2023-08-08T11:00:31;2.10;;;1.50;;
76795;SDS011;65745;50.278;18.192;2023-08-08T11:03:06;2.50;;;1.70;;
76795;SDS011;65745;50.278;18.192;2023-08-08T11:05:39;2.30;;;1.60;;
76795;SDS011;65745;50.278;18.192;2023-08-08T11:08:14;2.10;;;1.60;;
76795;SDS011;65745;50.278;18.192;2023-08-08T11:10:50;2.20;;;1.30;;
76795;SDS011;65745;50.278;18.192;2023-08-08T11:15:54;2.70;;;1.70;;
76795;SDS011;65745;50.278;18.192;2023-08-08T11:18:27;1.80;;;1.50;;
76795;SDS011;65745;50.278;18.192;2023-08-08T11:21:00;2.50;;;2.00;;
76795;SDS011;65745;50.278;18.192;2023-08-08T11:23:47;2.10;;;1.80;;
76795;SDS011;65745;50.278;18.192;2023-08-08T11:26:20;2.20;;;1.70;;
76795;SDS011;65745;50.278;18.192;2023-08-08T11:28:53;2.80;;;1.60;;
76795;SDS011;65745;50.278;18.192;2023-08-08T11:31:26;2.80;;;1.50;;
76795;SDS011;65745;50.278;18.192;2023-08-08T11:34:00;2.30;;;1.30;;
76795;SDS011;65745;50.278;18.192;2023-08-08T11:36:34;2.00;;;1.30;;
76795;SDS011;65745;50.278;18.192;2023-08-08T11:39:07;2.30;;;1.40;;
76795;SDS011;65745;50.278;18.192;2023-08-08T11:41:41;1.90;;;1.30;;
76795;SDS011;65745;50.278;18.192;2023-08-08T11:44:14;2.40;;;1.70;;
76795;SDS011;65745;50.278;18.192;2023-08-08T11:46:47;2.70;;;1.80;;
76795;SDS011;65745;50.278;18.192;2023-08-08T11:49:19;2.70;;;1.60;;
76795;SDS011;65745;50.278;18.192;2023-08-08T11:51:53;3.00;;;1.60;;
76795;SDS011;65745;50.278;18.192;2023-08-08T11:54:28;2.50;;;1.50;;
76795;SDS011;65745;50.278;18.192;2023-08-08T11:57:01;2.20;;;1.60;;
76795;SDS011;65745;50.278;18.192;2023-08-08T11:59:35;2.40;;;1.60;;
76795;SDS011;65745;50.278;18.192;2023-08-08T12:02:07;2.60;;;1.40;;
76795;SDS011;65745;50.278;18.192;2023-08-08T12:04:44;2.20;;;1.50;;
76795;SDS011;65745;50.278;18.192;2023-08-08T12:07:18;2.50;;;1.60;;
76795;SDS011;65745;50.278;18.192;2023-08-08T12:09:53;2.20;;;1.90;;
76795;SDS011;65745;50.278;18.192;2023-08-08T12:12:26;2.10;;;1.40;;
76795;SDS011;65745;50.278;18.192;2023-08-08T12:17:45;2.50;;;1.80;;
76795;SDS011;65745;50.278;18.192;2023-08-08T12:20:18;3.10;;;1.70;;
76795;SDS011;65745;50.278;18.192;2023-08-08T12:22:51;1.80;;;1.50;;
76795;SDS011;65745;50.278;18.192;2023-08-08T12:25:23;1.90;;;1.30;;
76795;SDS011;65745;50.278;18.192;2023-08-08T12:27:56;3.40;;;1.70;;
76795;SDS011;65745;50.278;18.192;2023-08-08T12:30:29;1.90;;;1.40;;
76795;SDS011;65745;50.278;18.192;2023-08-08T12:33:01;1.70;;;1.30;;
76795;SDS011;65745;50.278;18.192;2023-08-08T12:35:34;2.50;;;1.40;;
76795;SDS011;65745;50.278;18.192;2023-08-08T12:38:07;2.50;;;1.50;;
76795;SDS011;65745;50.278;18.192;2023-08-08T12:40:40;2.40;;;1.80;;
76795;SDS011;65745;50.278;18.192;2023-08-08T12:43:13;2.90;;;1.70;;
76795;SDS011;65745;50.278;18.192;2023-08-08T12:45:48;2.20;;;1.50;;
76795;SDS011;65745;50.278;18.192;2023-08-08T12:48:20;3.00;;;1.90;;
76795;SDS011;65745;50.278;18.192;2023-08-08T12:50:53;2.60;;;1.60;;
76795;SDS011;65745;50.278;18.192;2023-08-08T12:53:25;2.20;;;1.40;;
76795;SDS011;65745;50.278;18.192;2023-08-08T12:55:58;3.60;;;1.60;;
76795;SDS011;65745;50.278;18.192;2023-08-08T12:58:31;2.50;;;1.60;;
76795;SDS011;65745;50.278;18.192;2023-08-08T13:01:03;2.80;;;1.90;;
76795;SDS011;65745;50.278;18.192;2023-08-08T13:03:37;2.30;;;1.70;;
76795;SDS011;65745;50.278;18.192;2023-08-08T13:06:16;2.10;;;1.60;;
76795;SDS011;65745;50.278;18.192;2023-08-08T13:08:48;2.40;;;1.40;;
76795;SDS011;65745;50.278;18.192;2023-08-08T13:11:21;2.40;;;1.70;;
76795;SDS011;65745;50.278;18.192;2023-08-08T13:13:54;2.70;;;1.70;;
76795;SDS011;65745;50.278;18.192;2023-08-08T13:16:26;2.10;;;1.60;;
76795;SDS011;65745;50.278;18.192;2023-08-08T13:18:59;2.20;;;1.60;;
76795;SDS011;65745;50.278;18.192;2023-08-08T13:21:32;2.40;;;1.70;;
76795;SDS011;65745;50.278;18.192;2023-08-08T13:24:06;2.00;;;1.60;;
76795;SDS011;65745;50.278;18.192;2023-08-08T13:26:39;2.10;;;1.60;;
76795;SDS011;65745;50.278;18.192;2023-08-08T13:29:12;2.20;;;1.70;;
76795;SDS011;65745;50.278;18.192;2023-08-08T13:31:44;2.30;;;1.90;;
76795;SDS011;65745;50.278;18.192;2023-08-08T13:34:17;2.20;;;1.50;;
76795;SDS011;65745;50.278;18.192;2023-08-08T13:36:49;2.30;;;1.70;;
76795;SDS011;65745;50.278;18.192;2023-08-08T13:39:21;2.60;;;1.50;;
76795;SDS011;65745;50.278;18.192;2023-08-08T13:41:54;3.00;;;1.70;;
76795;SDS011;65745;50.278;18.192;2023-08-08T13:44:28;2.80;;;1.80;;
76795;SDS011;65745;50.278;18.192;2023-08-08T13:47:01;2.40;;;1.80;;
76795;SDS011;65745;50.278;18.192;2023-08-08T13:49:34;2.70;;;2.00;;
76795;SDS011;65745;50.278;18.192;2023-08-08T13:52:08;2.60;;;1.90;;
76795;SDS011;65745;50.278;18.192;2023-08-08T13:54:41;2.90;;;2.00;;
76795;SDS011;65745;50.278;18.192;2023-08-08T13:57:13;3.40;;;1.70;;
76795;SDS011;65745;50.278;18.192;2023-08-08T13:59:46;3.60;;;1.90;;
76795;SDS011;65745;50.278;18.192;2023-08-08T14:02:18;3.70;;;2.00;;
76795;SDS011;65745;50.278;18.192;2023-08-08T14:04:51;2.00;;;1.60;;
76795;SDS011;65745;50.278;18.192;2023-08-08T14:07:23;2.20;;;1.60;;
76795;SDS011;65745;50.278;18.192;2023-08-08T14:09:55;1.80;;;1.30;;
76795;SDS011;65745;50.278;18.192;2023-08-08T14:12:28;3.20;;;1.80;;
76795;SDS011;65745;50.278;18.192;2023-08-08T14:15:00;3.10;;;1.70;;
76795;SDS011;65745;50.278;18.192;2023-08-08T14:17:33;3.90;;;2.00;;
76795;SDS011;65745;50.278;18.192;2023-08-08T14:20:07;2.90;;;2.00;;
76795;SDS011;65745;50.278;18.192;2023-08-08T14:22:43;3.80;;;2.00;;
76795;SDS011;65745;50.278;18.192;2023-08-08T14:25:17;3.70;;;1.80;;
76795;SDS011;65745;50.278;18.192;2023-08-08T14:27:50;3.20;;;1.80;;
76795;SDS011;65745;50.278;18.192;2023-08-08T14:30:22;3.10;;;2.00;;
76795;SDS011;65745;50.278;18.192;2023-08-08T14:32:56;2.60;;;2.00;;
76795;SDS011;65745;50.278;18.192;2023-08-08T14:35:29;4.40;;;2.20;;
76795;SDS011;65745;50.278;18.192;2023-08-08T14:38:01;4.20;;;1.80;;
76795;SDS011;65745;50.278;18.192;2023-08-08T14:40:33;2.40;;;1.80;;
76795;SDS011;65745;50.278;18.192;2023-08-08T14:43:06;2.20;;;2.00;;
76795;SDS011;65745;50.278;18.192;2023-08-08T14:45:41;3.60;;;2.30;;
76795;SDS011;65745;50.278;18.192;2023-08-08T14:48:13;3.50;;;2.30;;
76795;SDS011;65745;50.278;18.192;2023-08-08T14:50:45;4.30;;;2.50;;
76795;SDS011;65745;50.278;18.192;2023-08-08T14:53:17;7.00;;;2.40;;
76795;SDS011;65745;50.278;18.192;2023-08-08T14:55:49;3.80;;;2.50;;
76795;SDS011;65745;50.278;18.192;2023-08-08T14:58:21;5.10;;;2.30;;
76795;SDS011;65745;50.278;18.192;2023-08-08T15:00:55;3.40;;;2.40;;
76795;SDS011;65745;50.278;18.192;2023-08-08T15:03:27;4.20;;;2.50;;
76795;SDS011;65745;50.278;18.192;2023-08-08T15:05:59;4.70;;;2.60;;
76795;SDS011;65745;50.278;18.192;2023-08-08T15:08:31;4.30;;;2.50;;
76795;SDS011;65745;50.278;18.192;2023-08-08T15:11:03;2.40;;;2.00;;
76795;SDS011;65745;50.278;18.192;2023-08-08T15:13:36;3.10;;;2.20;;
76795;SDS011;65745;50.278;18.192;2023-08-08T15:16:08;3.00;;;2.00;;
76795;SDS011;65745;50.278;18.192;2023-08-08T15:18:40;2.80;;;2.00;;
76795;SDS011;65745;50.278;18.192;2023-08-08T15:21:12;3.20;;;2.30;;
76795;SDS011;65745;50.278;18.192;2023-08-08T15:23:48;3.40;;;2.20;;